Graz, Austria

7:42 PM CET on December 20, 2014 (GMT +0100)
ISTEIERM17 | Change Station
CLOSE
Current Station
Personal Weather Station
Location: Graz-Pirka, STEIERMARK
Elevation: 1152 ft
Nearby Weather Stations
Active Advisory: Wind english:

Elev 1152 ft 47.00 °N, 15.39 °E | Updated 2 minutes ago

Clear
Clear
38.1 °F
Feels Like 38 °F
N
0.8
Wind Variable Wind from SSE
Gusts 1.8 mph

Today
High -- | Low -- °F
--% Chance of Precip.
Yesterday
High -- | Low -- °F
Precip. -- in
7:40 AM 4:11 PM
Waning Crescent, 2% visible
Pressure 30.06 in
Visibility -9999.0 miles
Clouds
Windchill 38 °F
Dew Point 36 °F
Humidity 92%
Rainfall 0.00 in
Snow Depth Not available.
UV 0.0 out of 12
Pollen Not available.
Air Quality Not available.
Flu Activity Not available.
METAR LOWG 201820Z 35005KT CAVOK 04/02 Q1018 NOSIG

More Conditions Fewer Conditions

Pressure 30.06 in
Visibility -9999.0 miles
Clouds
Windchill 38 °F
Dew Point 36 °F
Humidity 92%
Rainfall 0.00 in
Snow Depth Not available.
UV 0.0 out of 12
Pollen Not available.
Air Quality Not available.
Flu Activity Not available.
METAR LOWG 201820Z 35005KT CAVOK 04/02 Q1018 NOSIG

More Conditions Fewer Conditions

10-Day Weather Forecast

Almanac

Astronomy

Dec. 20, 2014 Rise Set
Actual Time
Civil Twilight
Nautical Twilight
Astronomical Twilight
Moon
Length of Visible Light
Length of Day
Tomorrow will be .
, % of the Moon is Illuminated

Today's Extremes

Country Highs Country Lows

Community

WunderPhotos

Upload Photos

1,779,244 photos uploaded!

WunderBlogs® & News

Nearby

Air Quality

  Air Quality AQ Index Pollutant
Not available.

Snow Depth

Station Depth Elevation

Earthquake Activity

City Distance Mag. Time & Date
Minimum magnitude displayed is 2.5.

Coastal Water Temperatures

Place Temperature

Nearby Weather Stations